createdAt,value
2022-08-05T00:01:20.961Z,22.50
2022-08-05T00:04:13.793Z,22.46
2022-08-05T00:06:59.285Z,22.48
2022-08-05T00:09:44.818Z,22.40
2022-08-05T00:12:31.044Z,22.50
2022-08-05T00:15:55.578Z,22.51
2022-08-05T00:18:22.705Z,22.65
2022-08-05T00:21:08.282Z,22.57
2022-08-05T00:24:10.546Z,22.64
2022-08-05T00:26:56.541Z,22.67
2022-08-05T00:29:41.836Z,22.69
2022-08-05T00:32:27.251Z,22.69
2022-08-05T00:35:12.585Z,22.70
2022-08-05T00:37:57.944Z,22.63
2022-08-05T00:40:53.164Z,22.64
2022-08-05T00:43:46.948Z,22.69
2022-08-05T00:46:36.903Z,22.64
2022-08-05T00:49:32.684Z,22.56
2022-08-05T00:52:18.506Z,22.57
2022-08-05T00:55:13.555Z,22.51
2022-08-05T00:58:00.698Z,22.43
2022-08-05T01:00:47.144Z,22.45
2022-08-05T01:03:34.198Z,22.42
2022-08-05T01:06:19.388Z,22.29
2022-08-05T01:09:04.705Z,22.36
2022-08-05T01:11:55.503Z,22.34
2022-08-05T01:15:04.003Z,22.31
2022-08-05T01:18:00.588Z,22.30
2022-08-05T01:21:25.393Z,22.08
2022-08-05T01:24:37.404Z,21.91
2022-08-05T01:27:55.427Z,21.66
2022-08-05T01:30:53.531Z,21.52
2022-08-05T01:34:17.668Z,21.52
2022-08-05T01:37:24.400Z,21.45
2022-08-05T01:40:12.176Z,21.39
2022-08-05T01:43:00.585Z,21.30
2022-08-05T01:45:56.314Z,21.35
2022-08-05T01:48:44.033Z,21.36
2022-08-05T01:51:35.262Z,21.35
2022-08-05T01:54:25.619Z,21.22
2022-08-05T01:58:10.980Z,21.25
2022-08-05T02:00:30.524Z,21.37
2022-08-05T02:03:36.065Z,21.11
2022-08-05T02:06:37.355Z,21.17
2022-08-05T02:09:24.038Z,21.15
2022-08-05T02:12:21.472Z,21.03
2022-08-05T02:15:19.888Z,21.11
2022-08-05T02:18:30.820Z,21.23
2022-08-05T02:21:25.205Z,21.33
2022-08-05T02:24:18.714Z,21.19
2022-08-05T02:27:10.827Z,21.28
2022-08-05T02:30:00.978Z,21.37
2022-08-05T02:32:50.157Z,21.36
2022-08-05T02:35:38.561Z,21.34
2022-08-05T02:38:37.698Z,21.32
2022-08-05T02:41:28.924Z,21.28
2022-08-05T02:44:24.411Z,21.17
2022-08-05T02:47:12.349Z,20.85
2022-08-05T02:49:59.203Z,20.98
2022-08-05T02:52:47.212Z,21.09
2022-08-05T02:55:53.896Z,21.14
2022-08-05T02:58:43.915Z,20.77
2022-08-05T03:01:29.820Z,20.48
2022-08-05T03:04:19.027Z,20.54
2022-08-05T03:07:09.344Z,20.47
2022-08-05T03:10:22.088Z,20.52
2022-08-05T03:13:18.680Z,20.32
2022-08-05T03:16:12.882Z,20.37
2022-08-05T03:19:01.429Z,20.21
2022-08-05T03:21:57.883Z,20.10
2022-08-05T03:24:47.006Z,19.78
2022-08-05T03:27:39.422Z,19.91
2022-08-05T03:30:38.435Z,19.75
2022-08-05T03:33:42.243Z,19.96
2022-08-05T03:36:35.974Z,19.86
2022-08-05T03:39:26.965Z,19.95
2022-08-05T03:42:12.976Z,20.05
2022-08-05T03:45:21.075Z,20.07
2022-08-05T03:48:06.786Z,19.88
2022-08-05T03:52:35.109Z,19.86
2022-08-05T03:55:51.765Z,19.84
2022-08-05T03:57:42.528Z,20.05
2022-08-05T04:00:29.762Z,20.12
2022-08-05T04:03:28.293Z,19.81
2022-08-05T04:06:13.928Z,19.98
2022-08-05T04:08:59.736Z,19.99
2022-08-05T04:11:47.242Z,19.85
2022-08-05T04:14:36.610Z,19.96
2022-08-05T04:17:22.594Z,19.99
2022-08-05T04:20:16.692Z,20.01
2022-08-05T04:23:02.020Z,20.02
2022-08-05T04:26:00.627Z,20.17
2022-08-05T04:28:51.177Z,20.19
2022-08-05T04:31:38.586Z,20.03
2022-08-05T04:34:33.727Z,20.12
2022-08-05T04:37:20.629Z,19.86
2022-08-05T04:40:12.167Z,19.98
2022-08-05T04:42:57.173Z,19.85
2022-08-05T04:45:48.139Z,19.80
2022-08-05T04:48:33.999Z,19.86
2022-08-05T04:51:19.501Z,19.92
2022-08-05T04:54:08.408Z,19.88
2022-08-05T04:56:58.951Z,19.84
2022-08-05T04:59:44.980Z,19.83
2022-08-05T05:02:36.357Z,19.86
2022-08-05T05:05:28.840Z,19.83
2022-08-05T05:08:30.017Z,19.78
2022-08-05T05:11:15.376Z,19.59
2022-08-05T05:14:01.203Z,19.45
2022-08-05T05:16:47.115Z,19.40
2022-08-05T05:19:36.623Z,19.43
2022-08-05T05:22:25.996Z,19.37
2022-08-05T05:25:16.079Z,19.47
2022-08-05T05:28:02.538Z,19.38
2022-08-05T05:30:49.598Z,19.31
2022-08-05T05:33:58.767Z,19.13
2022-08-05T05:36:40.342Z,19.29
2022-08-05T05:39:25.820Z,19.37
2022-08-05T05:42:20.765Z,19.46
2022-08-05T05:45:06.780Z,19.48
2022-08-05T05:48:06.350Z,19.46
2022-08-05T05:50:52.321Z,19.38
2022-08-05T05:53:46.020Z,19.37
2022-08-05T05:56:39.813Z,19.34
2022-08-05T05:59:25.047Z,19.45
2022-08-05T06:02:13.860Z,19.57
2022-08-05T06:04:59.480Z,19.53
2022-08-05T06:07:57.834Z,19.54
2022-08-05T06:10:52.578Z,19.42
2022-08-05T06:13:40.920Z,19.50
2022-08-05T06:16:36.784Z,19.23
2022-08-05T06:19:33.037Z,19.03
2022-08-05T06:22:28.529Z,19.34
2022-08-05T06:25:59.192Z,19.38
2022-08-05T06:28:21.084Z,19.44
2022-08-05T06:31:11.114Z,19.38
2022-08-05T06:34:06.129Z,19.45
2022-08-05T06:36:57.087Z,19.30
2022-08-05T06:39:43.705Z,19.48
2022-08-05T06:42:29.425Z,19.48
2022-08-05T06:45:21.354Z,19.53
2022-08-05T06:48:53.098Z,19.60
2022-08-05T06:51:30.093Z,19.74
2022-08-05T06:54:18.978Z,19.69
2022-08-05T06:57:56.707Z,19.51
2022-08-05T07:00:10.655Z,19.35
2022-08-05T07:02:57.506Z,19.48
2022-08-05T07:05:43.718Z,19.61
2022-08-05T07:08:31.413Z,19.38
2022-08-05T07:11:16.969Z,19.38
2022-08-05T07:14:08.328Z,19.49
2022-08-05T07:18:01.975Z,19.48
2022-08-05T07:20:32.133Z,19.37
2022-08-05T07:23:26.253Z,19.55
2022-08-05T07:26:16.408Z,19.49
2022-08-05T07:29:06.329Z,19.74
2022-08-05T07:31:54.643Z,19.69
2022-08-05T07:34:42.304Z,19.22
2022-08-05T07:37:41.100Z,19.08
2022-08-05T07:40:35.243Z,19.35
2022-08-05T07:43:21.168Z,19.51
2022-08-05T07:46:06.591Z,19.45
2022-08-05T07:49:09.823Z,19.27
2022-08-05T07:51:55.307Z,19.36
2022-08-05T07:54:47.700Z,19.31
2022-08-05T07:57:42.127Z,19.22
2022-08-05T08:00:40.560Z,19.38
2022-08-05T08:03:26.024Z,19.48
2022-08-05T08:06:29.880Z,19.56
2022-08-05T08:09:30.610Z,19.32
2022-08-05T08:12:30.544Z,19.32
2022-08-05T08:15:37.231Z,19.38
2022-08-05T08:22:09.128Z,19.23
2022-08-05T08:24:54.379Z,19.20
2022-08-05T08:27:51.454Z,18.98
2022-08-05T08:31:09.352Z,19.06
2022-08-05T08:33:54.731Z,19.03
2022-08-05T08:36:48.820Z,19.12
2022-08-05T08:39:38.948Z,19.07
2022-08-05T08:42:50.970Z,19.14
2022-08-05T08:45:38.102Z,19.18
2022-08-05T08:49:04.938Z,19.15
2022-08-05T08:52:05.847Z,18.92
2022-08-05T08:54:44.616Z,18.92
2022-08-05T08:57:42.097Z,19.00
2022-08-05T09:00:40.231Z,18.32
2022-08-05T09:03:27.645Z,18.63
2022-08-05T09:06:29.532Z,18.53
2022-08-05T09:09:15.120Z,18.51
2022-08-05T09:12:19.861Z,18.73
2022-08-05T09:15:06.825Z,18.59
2022-08-05T09:17:53.055Z,18.80
2022-08-05T09:25:00.755Z,18.92
2022-08-05T09:28:03.779Z,18.89
2022-08-05T09:30:55.823Z,19.05
2022-08-05T09:34:13.844Z,19.23
2022-08-05T09:36:59.803Z,19.25
2022-08-05T09:39:52.332Z,19.30
2022-08-05T09:42:41.957Z,19.31
2022-08-05T09:46:07.640Z,19.32
2022-08-05T09:49:06.941Z,19.50
2022-08-05T09:51:52.545Z,19.56
2022-08-05T09:54:37.493Z,19.41
2022-08-05T09:57:43.336Z,19.38
2022-08-05T10:00:29.721Z,19.26
2022-08-05T10:03:16.201Z,19.16
2022-08-05T10:06:15.469Z,19.29
2022-08-05T10:09:27.639Z,19.18
2022-08-05T10:12:18.731Z,18.62
2022-08-05T10:15:27.527Z,18.88
2022-08-05T10:18:16.748Z,18.77
2022-08-05T10:21:08.456Z,18.78
2022-08-05T10:24:00.444Z,18.80
2022-08-05T10:26:51.619Z,18.89
2022-08-05T10:30:07.071Z,18.71
2022-08-05T10:32:52.416Z,18.37
2022-08-05T10:35:52.368Z,18.47
2022-08-05T10:38:47.992Z,18.69
2022-08-05T10:41:46.458Z,18.75
2022-08-05T10:44:32.810Z,18.88
2022-08-05T10:47:27.113Z,18.84
2022-08-05T10:50:20.422Z,18.85
2022-08-05T10:53:54.484Z,19.06
2022-08-05T10:56:49.498Z,18.63
2022-08-05T11:00:04.080Z,18.80
2022-08-05T11:02:58.969Z,18.86
2022-08-05T11:06:14.554Z,18.99
2022-08-05T11:09:24.272Z,19.01
2022-08-05T11:12:24.749Z,19.15
2022-08-05T11:15:20.423Z,19.18
2022-08-05T11:18:14.118Z,19.21
2022-08-05T11:20:59.884Z,19.17
2022-08-05T11:24:03.783Z,19.32
2022-08-05T11:27:51.138Z,19.40
2022-08-05T11:30:55.337Z,19.49
2022-08-05T11:33:48.113Z,19.55
2022-08-05T11:36:52.948Z,19.57
2022-08-05T11:39:55.560Z,19.53
2022-08-05T11:42:46.489Z,19.31
2022-08-05T11:46:27.144Z,19.37
2022-08-05T11:48:41.619Z,19.42
2022-08-05T11:51:44.469Z,19.19
2022-08-05T11:54:34.493Z,19.48
2022-08-05T11:57:39.397Z,19.50
2022-08-05T12:00:30.678Z,19.48
2022-08-05T12:03:56.137Z,19.65
2022-08-05T12:06:41.679Z,19.74
2022-08-05T12:09:53.394Z,19.80
2022-08-05T12:12:39.284Z,19.97
2022-08-05T12:15:44.939Z,20.04
2022-08-05T12:18:38.803Z,19.94
2022-08-05T12:21:33.552Z,19.96
2022-08-05T12:24:24.631Z,19.94
2022-08-05T12:27:21.505Z,20.06
2022-08-05T12:30:15.624Z,20.07
2022-08-05T12:33:06.953Z,20.04
2022-08-05T12:35:52.352Z,19.87
2022-08-05T12:38:39.514Z,20.07
2022-08-05T12:41:35.039Z,20.27
2022-08-05T12:44:34.113Z,20.14
2022-08-05T12:47:30.485Z,20.07
2022-08-05T12:50:17.209Z,20.29
2022-08-05T12:53:04.978Z,20.60
2022-08-05T12:55:50.276Z,20.81
2022-08-05T12:58:49.149Z,21.01
2022-08-05T13:02:03.682Z,21.28
2022-08-05T13:04:54.324Z,21.50
2022-08-05T13:07:59.415Z,21.94
2022-08-05T13:10:50.344Z,21.65
2022-08-05T13:14:04.754Z,21.82
2022-08-05T13:16:46.183Z,22.22
2022-08-05T13:19:40.318Z,22.55
2022-08-05T13:22:38.714Z,22.95
2022-08-05T13:25:58.649Z,23.13
2022-08-05T13:28:32.375Z,23.34
2022-08-05T13:31:18.000Z,23.23
2022-08-05T13:34:24.696Z,22.95
2022-08-05T13:37:10.822Z,22.91
2022-08-05T13:40:15.116Z,22.66
2022-08-05T13:43:01.508Z,22.79
2022-08-05T13:45:46.322Z,22.74
2022-08-05T13:48:58.518Z,22.60
2022-08-05T13:51:41.268Z,22.88
2022-08-05T13:54:27.291Z,22.60
2022-08-05T13:57:15.095Z,22.75
2022-08-05T14:00:02.134Z,22.70
2022-08-05T14:02:47.970Z,22.82
2022-08-05T14:06:25.136Z,22.93
2022-08-05T14:08:41.599Z,22.95
2022-08-05T14:11:27.294Z,23.12
2022-08-05T14:14:16.384Z,23.01
2022-08-05T14:17:16.731Z,22.92
2022-08-05T14:20:07.590Z,22.74
2022-08-05T14:22:53.646Z,22.62
2022-08-05T14:25:45.078Z,22.65
2022-08-05T14:28:30.945Z,22.64
2022-08-05T14:31:17.415Z,22.47
2022-08-05T14:34:23.680Z,22.42
2022-08-05T14:37:09.141Z,22.58
2022-08-05T14:39:59.011Z,22.44
2022-08-05T14:42:44.439Z,22.29
2022-08-05T14:45:29.707Z,22.37
2022-08-05T14:48:33.496Z,22.36
2022-08-05T14:51:20.772Z,22.45
2022-08-05T14:54:28.350Z,22.44
2022-08-05T14:57:13.662Z,22.28
2022-08-05T14:59:58.853Z,22.38
2022-08-05T15:02:44.370Z,22.33
2022-08-05T15:06:08.295Z,22.15
2022-08-05T15:09:01.108Z,22.25
2022-08-05T15:11:51.223Z,22.28
2022-08-05T15:14:48.079Z,22.23
2022-08-05T15:17:47.636Z,22.29
2022-08-05T15:20:38.200Z,22.38
2022-08-05T15:23:23.489Z,22.42
2022-08-05T15:26:09.002Z,22.46
2022-08-05T15:28:54.796Z,22.51
2022-08-05T15:31:40.075Z,22.55
2022-08-05T15:34:33.382Z,22.54
2022-08-05T15:37:22.204Z,22.68
2022-08-05T15:40:59.231Z,22.58
2022-08-05T15:43:30.334Z,22.67
2022-08-05T15:46:31.317Z,22.65
2022-08-05T15:49:26.213Z,22.54
2022-08-05T15:52:16.538Z,22.52
2022-08-05T15:55:02.673Z,22.21
2022-08-05T15:57:48.863Z,22.31
2022-08-05T16:00:57.029Z,22.29
2022-08-05T16:03:43.207Z,22.31
2022-08-05T16:06:28.522Z,22.15
2022-08-05T16:09:15.447Z,22.16
2022-08-05T16:12:00.770Z,22.05
2022-08-05T16:14:46.070Z,22.15
2022-08-05T16:17:31.937Z,22.19
2022-08-05T16:20:17.931Z,21.97
2022-08-05T16:23:05.064Z,21.79
2022-08-05T16:26:08.057Z,21.80
2022-08-05T16:28:54.532Z,21.84
2022-08-05T16:31:56.980Z,21.69
2022-08-05T16:34:42.822Z,21.73
2022-08-05T16:38:15.677Z,21.50
2022-08-05T16:40:33.311Z,21.66
2022-08-05T16:43:19.028Z,21.56
2022-08-05T16:46:12.657Z,21.60
2022-08-05T16:48:58.476Z,21.52
2022-08-05T16:51:50.977Z,21.51
2022-08-05T16:54:39.977Z,21.58
2022-08-05T16:57:49.482Z,21.13
2022-08-05T17:00:34.966Z,21.22
2022-08-05T17:03:23.227Z,21.17
2022-08-05T17:06:08.797Z,21.09
2022-08-05T17:08:55.813Z,21.22
2022-08-05T17:11:48.772Z,21.19
2022-08-05T17:14:37.768Z,21.24
2022-08-05T17:17:23.300Z,20.97
2022-08-05T17:20:27.349Z,20.89
2022-08-05T17:24:03.197Z,20.82
2022-08-05T17:26:17.447Z,20.72
2022-08-05T17:29:04.229Z,20.43
2022-08-05T17:31:58.960Z,20.48
2022-08-05T17:34:47.583Z,20.58
2022-08-05T17:37:41.545Z,20.52
2022-08-05T17:40:31.574Z,20.55
2022-08-05T17:43:16.946Z,20.66
2022-08-05T17:46:02.861Z,20.56
2022-08-05T17:48:49.810Z,20.67
2022-08-05T17:51:40.498Z,20.57
2022-08-05T17:54:25.824Z,20.60
2022-08-05T17:57:12.289Z,20.71
2022-08-05T18:00:03.707Z,20.55
2022-08-05T18:02:50.781Z,20.57
2022-08-05T18:05:36.345Z,20.15
2022-08-05T18:08:21.739Z,20.20
2022-08-05T18:11:07.969Z,20.13
2022-08-05T18:13:56.536Z,19.99
2022-08-05T18:16:51.544Z,19.93
2022-08-05T18:19:37.482Z,19.85
2022-08-05T18:22:46.227Z,19.75
2022-08-05T18:25:35.887Z,19.64
2022-08-05T18:28:22.214Z,19.56
2022-08-05T18:31:13.705Z,19.65
2022-08-05T18:34:01.701Z,19.59
2022-08-05T18:36:47.181Z,19.53
2022-08-05T18:40:30.965Z,19.51
2022-08-05T18:42:38.851Z,19.44
2022-08-05T18:45:25.285Z,19.39
2022-08-05T18:48:31.663Z,19.26
2022-08-05T18:52:06.356Z,19.17
2022-08-05T18:54:23.622Z,19.05
2022-08-05T18:57:08.676Z,18.71
2022-08-05T19:00:02.341Z,18.89
2022-08-05T19:02:48.847Z,18.87
2022-08-05T19:06:12.713Z,18.87
2022-08-05T19:08:39.750Z,18.72
2022-08-05T19:11:28.442Z,18.63
2022-08-05T19:14:44.790Z,18.73
2022-08-05T19:17:19.443Z,18.75
2022-08-05T19:20:05.820Z,18.66
2022-08-05T19:22:51.547Z,18.66
2022-08-05T19:25:41.948Z,18.55
2022-08-05T19:28:29.593Z,18.51
2022-08-05T19:31:19.410Z,18.48
2022-08-05T19:34:06.497Z,18.29
2022-08-05T19:36:52.423Z,18.26
2022-08-05T19:39:45.145Z,18.26
2022-08-05T19:42:36.503Z,18.25
2022-08-05T19:45:25.606Z,18.18
2022-08-05T19:48:14.637Z,18.00
2022-08-05T19:51:00.211Z,17.84
2022-08-05T19:54:04.887Z,17.80
2022-08-05T19:56:50.482Z,17.76
2022-08-05T19:59:55.071Z,17.65
2022-08-05T20:02:45.426Z,17.62
2022-08-05T20:05:50.191Z,17.50
2022-08-05T20:08:36.247Z,17.50
2022-08-05T20:11:23.306Z,17.42
2022-08-05T20:14:14.274Z,17.24
2022-08-05T20:17:01.625Z,17.20
2022-08-05T20:19:46.849Z,17.10
2022-08-05T20:22:32.742Z,16.91
2022-08-05T20:25:18.247Z,16.64
2022-08-05T20:28:03.448Z,16.80
2022-08-05T20:30:49.770Z,16.85
2022-08-05T20:33:35.146Z,16.78
2022-08-05T20:36:22.136Z,16.77
2022-08-05T20:39:07.519Z,16.78
2022-08-05T20:42:00.324Z,16.71
2022-08-05T20:44:45.972Z,16.46
2022-08-05T20:47:32.391Z,16.41
2022-08-05T20:50:18.096Z,16.47
2022-08-05T20:53:04.174Z,16.40
2022-08-05T20:56:08.524Z,16.46
2022-08-05T20:58:54.526Z,16.42
2022-08-05T21:01:39.955Z,16.42
2022-08-05T21:04:26.858Z,16.35
2022-08-05T21:07:12.288Z,16.24
2022-08-05T21:09:58.919Z,16.11
2022-08-05T21:12:58.067Z,16.10
2022-08-05T21:15:51.049Z,16.16
2022-08-05T21:18:36.622Z,16.10
2022-08-05T21:21:24.341Z,16.06
2022-08-05T21:27:47.717Z,16.10
2022-08-05T21:30:39.516Z,16.09
2022-08-05T21:33:26.317Z,16.00
2022-08-05T21:36:29.830Z,15.75
2022-08-05T21:39:16.796Z,15.65
2022-08-05T21:42:06.511Z,15.71
2022-08-05T21:48:32.727Z,15.74
2022-08-05T21:51:25.246Z,15.64
2022-08-05T21:54:30.665Z,15.48
2022-08-05T21:57:30.689Z,15.24
2022-08-05T22:00:17.258Z,15.13
2022-08-05T22:03:02.334Z,15.14
2022-08-05T22:05:49.383Z,15.09
2022-08-05T22:08:34.872Z,14.94
2022-08-05T22:11:35.219Z,14.56
2022-08-05T22:14:35.064Z,14.74
2022-08-05T22:17:22.961Z,14.89
2022-08-05T22:20:13.614Z,14.89
2022-08-05T22:23:00.096Z,14.92
2022-08-05T22:26:09.866Z,14.95
2022-08-05T22:28:50.208Z,14.90
2022-08-05T22:31:44.901Z,14.90
2022-08-05T22:34:31.746Z,14.90
2022-08-05T22:37:17.076Z,14.88
2022-08-05T22:40:04.651Z,14.87
2022-08-05T22:42:53.175Z,14.88
2022-08-05T22:45:43.514Z,14.80
2022-08-05T22:48:30.424Z,14.75
2022-08-05T22:51:23.164Z,14.73
2022-08-05T22:54:22.425Z,14.75
2022-08-05T22:57:09.141Z,14.76
2022-08-05T22:59:54.428Z,14.72
2022-08-05T23:02:46.625Z,14.72
2022-08-05T23:05:36.183Z,14.67
2022-08-05T23:08:22.124Z,14.68
2022-08-05T23:11:08.649Z,14.63
2022-08-05T23:13:53.919Z,14.57
2022-08-05T23:16:39.174Z,14.50
2022-08-05T23:19:29.081Z,14.49
2022-08-05T23:22:27.802Z,14.47
2022-08-05T23:25:13.725Z,14.47
2022-08-05T23:28:03.417Z,14.44
2022-08-05T23:30:53.397Z,14.41
2022-08-05T23:34:04.853Z,14.37
2022-08-05T23:36:45.047Z,14.32
2022-08-05T23:39:32.476Z,14.32
2022-08-05T23:42:36.127Z,14.21
2022-08-05T23:45:23.697Z,14.16
2022-08-05T23:48:08.772Z,14.19
2022-08-05T23:50:54.745Z,14.14
2022-08-05T23:53:46.396Z,14.15
2022-08-05T23:56:32.248Z,14.16
2022-08-05T23:59:19.529Z,14.01
